Time;durP1;ratioP1;P1;durP2;ratioP2;P2;SDS_P1;SDS_P2;PMS_P1;PMS_P2;Temp;Humidity;BMP_temperature;BMP_pressure;BME280_temperature;BME280_humidity;BME280_pressure;Samples;Min_cycle;Max_cycle;Signal;HPM_P1;HPM_P2
2021/01/12 00:01:42;;;;;;;86.20;43.63;;;;;;;3.84;55.49;100001.25;2604812;76;25381;-76
2021/01/12 00:05:08;;;;;;;87.30;43.52;;;;;;;3.74;55.47;99997.38;2557902;77;26152;-74
2021/01/12 00:08:30;;;;;;;81.82;43.63;;;;;;;3.71;55.42;99981.77;2465571;79;26048;-75
2021/01/12 00:12:09;;;;;;;82.82;42.60;;;;;;;3.68;55.38;99991.56;2464258;80;25684;-83
2021/01/12 00:15:37;;;;;;;85.77;41.90;;;;;;;3.65;55.36;99978.54;2473675;78;25657;-89
2021/01/12 00:19:07;;;;;;;83.50;43.05;;;;;;;3.63;55.32;99979.27;2460375;80;26013;-75
2021/01/12 00:22:39;;;;;;;80.83;40.08;;;;;;;3.60;55.35;99973.56;2458782;80;25749;-74
2021/01/12 00:26:10;;;;;;;80.67;41.90;;;;;;;3.58;55.29;99982.03;2513230;78;25691;-74
2021/01/12 00:29:40;;;;;;;75.62;39.15;;;;;;;3.55;55.28;99976.36;2439395;80;25571;-75
2021/01/12 00:33:08;;;;;;;76.07;40.30;;;;;;;3.52;55.28;99966.79;2442599;80;25633;-88
2021/01/12 00:36:44;;;;;;;74.03;39.03;;;;;;;3.50;55.26;99974.84;2440464;80;25748;-74
2021/01/12 00:40:09;;;;;;;78.37;40.55;;;;;;;3.47;55.24;99966.97;2446389;80;25379;-74
2021/01/12 00:43:48;;;;;;;80.42;39.40;;;;;;;3.45;55.24;99966.45;2398937;82;25707;-75
2021/01/12 00:47:11;;;;;;;80.05;39.80;;;;;;;3.42;55.24;99963.73;2481632;79;25759;-75
2021/01/12 00:50:34;;;;;;;78.33;40.03;;;;;;;3.39;55.24;99964.47;2482863;79;25748;-75
2021/01/12 00:53:55;;;;;;;77.15;38.50;;;;;;;3.36;55.22;99959.59;2482358;79;25811;-90
2021/01/12 00:57:41;;;;;;;72.27;37.88;;;;;;;3.34;55.21;99958.20;2480106;78;25569;-75
2021/01/12 01:01:03;;;;;;;74.97;38.63;;;;;;;3.31;55.18;99960.27;2477848;79;26105;-75
2021/01/12 01:04:33;;;;;;;69.37;38.45;;;;;;;3.30;55.20;99956.31;2478302;78;25792;-90
2021/01/12 01:07:55;;;;;;;71.97;36.20;;;;;;;3.28;55.22;99947.24;2484837;79;25658;-76
2021/01/12 01:11:20;;;;;;;72.53;38.05;;;;;;;3.27;55.19;99948.06;2485381;79;25670;-75
2021/01/12 01:14:45;;;;;;;71.60;36.77;;;;;;;3.26;55.19;99947.98;2486947;79;25731;-75
2021/01/12 01:18:06;;;;;;;73.55;38.70;;;;;;;3.24;55.16;99938.91;2486352;79;25658;-79
2021/01/12 01:21:28;;;;;;;76.20;38.45;;;;;;;3.22;55.17;99928.05;2487201;79;25684;-75
2021/01/12 01:25:03;;;;;;;67.80;36.13;;;;;;;3.20;55.15;99925.80;2484500;77;25771;-88
2021/01/12 01:28:35;;;;;;;75.47;36.73;;;;;;;3.22;55.15;99921.61;2591192;76;25158;-95
2021/01/12 01:31:57;;;;;;;74.58;38.33;;;;;;;3.14;55.15;99921.27;2559515;77;25672;-81
2021/01/12 01:35:19;;;;;;;68.07;37.40;;;;;;;3.12;55.13;99908.72;2561948;77;25363;-75
2021/01/12 01:38:54;;;;;;;68.55;38.05;;;;;;;3.10;55.14;99900.02;2555924;77;25544;-75
2021/01/12 01:42:15;;;;;;;70.28;36.45;;;;;;;3.08;55.14;99893.94;2553740;77;25515;-75
2021/01/12 01:45:39;;;;;;;68.22;36.60;;;;;;;3.05;55.16;99883.50;2555376;77;25785;-74
2021/01/12 01:49:07;;;;;;;70.52;37.45;;;;;;;3.04;55.15;99866.29;2556174;77;25602;-75
2021/01/12 01:52:40;;;;;;;64.45;33.65;;;;;;;3.03;55.16;99876.09;2555400;77;25564;-74
2021/01/12 01:56:06;;;;;;;67.08;35.92;;;;;;;3.00;55.17;99857.92;2552427;77;25711;-74
2021/01/12 01:59:39;;;;;;;67.65;35.70;;;;;;;2.98;55.17;99848.86;2557185;77;25604;-83
2021/01/12 02:03:14;;;;;;;61.88;34.90;;;;;;;2.96;55.17;99840.58;2487570;79;25999;-75
2021/01/12 02:06:38;;;;;;;68.02;34.78;;;;;;;2.94;55.17;99828.06;2489964;79;25597;-74
2021/01/12 02:10:01;;;;;;;64.22;34.98;;;;;;;2.91;55.18;99819.80;2489190;79;25764;-75
2021/01/12 02:13:30;;;;;;;63.05;33.85;;;;;;;2.89;55.19;99820.52;2489723;79;25695;-75
2021/01/12 02:21:00;;;;;;;72.00;36.23;;;;;;;2.90;55.15;99802.97;2612779;74;34213;-90
2021/01/12 02:24:27;;;;;;;;;;;;;;;;;;;;;
2021/01/12 02:27:56;;;;;;;63.40;34.23;;;;;;;2.78;55.13;99802.03;2517440;77;26227;-88
2021/01/12 02:31:30;;;;;;;61.03;33.03;;;;;;;2.81;55.16;99789.30;2589189;76;25515;-96
2021/01/12 02:35:00;;;;;;;66.57;34.08;;;;;;;2.73;55.17;99791.50;2555183;77;25607;-86
2021/01/12 02:38:40;;;;;;;63.55;34.03;;;;;;;2.73;55.14;99791.50;2463765;80;25469;-76
2021/01/12 02:42:18;;;;;;;61.95;31.62;;;;;;;2.71;55.14;99778.12;2508058;78;25358;-77
2021/01/12 02:45:42;;;;;;;63.63;32.78;;;;;;;2.68;55.17;99767.27;2481565;78;25513;-75
2021/01/12 02:49:11;;;;;;;59.88;33.30;;;;;;;2.66;55.16;99756.02;2484232;79;25546;-74
2021/01/12 02:52:50;;;;;;;66.92;35.65;;;;;;;2.65;55.16;99744.38;2540187;77;25443;-92
2021/01/12 02:56:11;;;;;;;61.55;33.35;;;;;;;2.63;55.15;99736.57;2537784;77;25561;-78
2021/01/12 02:59:42;;;;;;;63.92;32.08;;;;;;;2.60;55.23;99723.19;2442260;80;25547;-75
2021/01/12 03:03:17;;;;;;;62.40;33.40;;;;;;;2.59;55.18;99710.23;2485409;79;25640;-74
2021/01/12 03:06:38;;;;;;;61.48;32.98;;;;;;;2.58;55.17;99716.20;2534079;77;25911;-74
2021/01/12 03:10:07;;;;;;;61.70;32.33;;;;;;;2.55;55.13;99702.79;2437138;81;25770;-75
2021/01/12 03:13:29;;;;;;;56.40;31.37;;;;;;;2.54;55.12;99711.73;2543627;77;25350;-77
2021/01/12 03:16:53;;;;;;;60.00;32.80;;;;;;;2.52;55.13;99692.36;2442133;80;25744;-77
2021/01/12 03:20:15;;;;;;;58.48;31.57;;;;;;;2.51;55.13;99684.17;2538977;77;25401;-75
2021/01/12 03:23:37;;;;;;;58.05;32.85;;;;;;;2.49;55.12;99676.78;2438512;80;25624;-75
2021/01/12 03:26:58;;;;;;;64.82;32.10;;;;;;;2.48;55.12;99667.72;2539873;77;25328;-76
2021/01/12 03:30:23;;;;;;;59.50;32.13;;;;;;;2.48;55.13;99662.58;2419445;81;25567;-76
2021/01/12 03:33:44;;;;;;;55.08;31.57;;;;;;;2.46;55.10;99661.20;2438010;80;25357;-76
2021/01/12 03:37:06;;;;;;;55.08;31.68;;;;;;;2.45;55.12;99654.31;2482370;79;25721;-92
2021/01/12 03:40:27;;;;;;;55.48;30.88;;;;;;;2.44;55.12;99644.84;2478960;79;25479;-84
2021/01/12 03:43:48;;;;;;;56.05;31.90;;;;;;;2.43;55.14;99625.09;2481972;79;25657;-76
2021/01/12 03:47:09;;;;;;;55.00;32.00;;;;;;;2.43;55.14;99618.66;2484336;78;25529;-74
2021/01/12 03:50:31;;;;;;;61.55;32.42;;;;;;;2.42;55.13;99616.00;2480909;79;25597;-91
2021/01/12 03:54:08;;;;;;;57.30;30.92;;;;;;;2.41;55.14;99605.25;2476758;79;25588;-94
2021/01/12 03:57:30;;;;;;;59.30;30.15;;;;;;;2.41;55.14;99609.11;2480716;78;25553;-94
2021/01/12 04:00:54;;;;;;;52.48;29.00;;;;;;;2.39;55.15;99625.74;2548737;77;25567;-94
2021/01/12 04:04:15;;;;;;;58.42;30.68;;;;;;;2.39;55.15;99621.01;2442396;80;25389;-75
2021/01/12 04:07:37;;;;;;;60.38;30.60;;;;;;;2.36;55.13;99620.08;2539115;77;25179;-75
2021/01/12 04:10:59;;;;;;;58.25;31.42;;;;;;;2.35;55.11;99614.85;2440980;80;25518;-76
2021/01/12 04:14:20;;;;;;;53.15;30.48;;;;;;;2.34;55.07;99592.11;2540275;77;25180;-95
2021/01/12 04:17:41;;;;;;;51.95;29.40;;;;;;;2.34;55.10;99598.55;2540074;77;25629;-75
2021/01/12 04:21:07;;;;;;;57.33;32.17;;;;;;;2.32;55.11;99593.73;2440194;81;25624;-74
2021/01/12 04:24:37;;;;;;;57.62;30.27;;;;;;;2.31;55.11;99575.67;2535714;77;25512;-76
2021/01/12 04:28:08;;;;;;;;;;;;;;;;;;;;;
2021/01/12 04:31:34;;;;;;;61.20;31.30;;;;;;;2.31;55.10;99578.24;2538823;77;25528;-76
2021/01/12 04:35:03;;;;;;;55.43;30.30;;;;;;;2.29;55.13;99570.86;2529844;77;25906;-76
2021/01/12 04:38:25;;;;;;;56.83;31.82;;;;;;;2.29;55.14;99569.16;2534093;77;25380;-74
2021/01/12 04:41:47;;;;;;;52.78;29.42;;;;;;;2.28;55.16;99558.82;2430348;80;25963;-74
2021/01/12 04:45:12;;;;;;;56.80;30.72;;;;;;;2.27;55.19;99547.66;2524059;77;26182;-93
2021/01/12 04:48:34;;;;;;;61.10;30.55;;;;;;;2.28;55.21;99542.11;2440699;80;25622;-75
2021/01/12 04:51:55;;;;;;;55.78;30.08;;;;;;;2.27;55.19;99530.94;2539947;77;25549;-75
2021/01/12 04:55:19;;;;;;;55.83;31.52;;;;;;;2.27;55.22;99527.09;2441051;81;25498;-75
2021/01/12 04:58:43;;;;;;;65.85;30.17;;;;;;;2.27;55.20;99523.23;2540171;77;25351;-76
2021/01/12 05:02:05;;;;;;;59.55;31.25;;;;;;;2.29;55.21;99515.56;2419235;81;25407;-75
2021/01/12 05:05:32;;;;;;;58.40;31.02;;;;;;;2.28;55.21;99522.41;2537280;77;25602;-74
2021/01/12 05:08:55;;;;;;;57.67;31.35;;;;;;;2.28;55.22;99515.98;2428723;80;25664;-75
2021/01/12 05:12:20;;;;;;;59.80;31.30;;;;;;;2.28;55.22;99509.55;2524461;77;25617;-76
2021/01/12 05:15:45;;;;;;;57.30;30.15;;;;;;;2.29;55.24;99509.13;2528822;77;26141;-74
2021/01/12 05:19:08;;;;;;;55.20;30.15;;;;;;;2.29;55.25;99504.86;2437862;81;25598;-87
2021/01/12 05:22:38;;;;;;;54.08;30.45;;;;;;;2.31;55.28;99508.80;2528773;77;25699;-75
2021/01/12 05:26:03;;;;;;;59.33;32.35;;;;;;;2.31;55.29;99503.25;2437150;80;25682;-75
2021/01/12 05:29:41;;;;;;;54.93;31.55;;;;;;;2.32;55.28;99497.28;2503865;77;25418;-77
2021/01/12 05:33:06;;;;;;;53.08;30.62;;;;;;;2.31;55.30;99490.39;2440395;80;25589;-75
2021/01/12 05:36:31;;;;;;;53.30;29.65;;;;;;;2.32;55.31;99488.28;2536845;77;25324;-75
2021/01/12 05:39:56;;;;;;;60.25;30.62;;;;;;;2.33;55.33;99487.48;2436025;80;25668;-75
2021/01/12 05:43:22;;;;;;;55.80;30.88;;;;;;;2.32;55.33;99490.85;2483027;79;25483;-75
2021/01/12 05:46:52;;;;;;;59.38;31.30;;;;;;;2.33;55.33;99490.06;2482270;79;25350;-76
2021/01/12 05:50:40;;;;;;;57.05;29.63;;;;;;;2.33;55.34;99481.47;2463594;79;25658;-75
2021/01/12 05:54:11;;;;;;;55.40;32.00;;;;;;;2.32;55.37;99479.28;2476734;79;25426;-93
2021/01/12 05:57:38;;;;;;;66.97;33.02;;;;;;;2.33;55.35;99471.19;2499012;77;25531;-92
2021/01/12 06:01:11;;;;;;;53.70;30.50;;;;;;;2.34;55.37;99476.78;2535427;77;25643;-88
2021/01/12 06:04:35;;;;;;;60.98;31.95;;;;;;;2.35;55.39;99477.25;2438789;80;25534;-76
2021/01/12 06:07:56;;;;;;;61.05;32.13;;;;;;;2.34;55.37;99467.78;2438457;80;25681;-75
2021/01/12 06:11:19;;;;;;;56.35;30.15;;;;;;;2.34;55.38;99459.66;2438086;80;25620;-75
2021/01/12 06:14:48;;;;;;;59.25;30.17;;;;;;;2.33;55.37;99441.19;2482942;78;25625;-75
2021/01/12 06:18:37;;;;;;;52.00;28.90;;;;;;;2.40;55.38;99436.27;2603933;76;33022;-91
2021/01/12 06:22:04;;;;;;;63.10;31.68;;;;;;;2.34;55.42;99436.52;2562663;77;25339;-93
2021/01/12 06:25:26;;;;;;;65.80;33.85;;;;;;;2.35;55.41;99440.83;2565165;77;25637;-76
2021/01/12 06:28:47;;;;;;;57.58;32.78;;;;;;;2.36;55.43;99432.32;2560902;76;25681;-75
2021/01/12 06:32:09;;;;;;;57.25;31.42;;;;;;;2.35;55.42;99421.95;2561690;77;25620;-76
2021/01/12 06:35:38;;;;;;;63.75;30.65;;;;;;;2.36;55.43;99411.75;2558042;77;25600;-75
2021/01/12 06:39:12;;;;;;;58.52;31.20;;;;;;;2.36;55.43;99409.17;2558496;76;25584;-74
2021/01/12 06:42:35;;;;;;;59.77;30.85;;;;;;;2.39;55.44;99410.09;2562774;77;25607;-76
2021/01/12 06:45:58;;;;;;;59.45;32.85;;;;;;;2.40;55.44;99402.84;2558070;76;25689;-90
2021/01/12 06:49:27;;;;;;;60.65;31.10;;;;;;;2.40;55.42;99402.45;2561007;76;25618;-74
2021/01/12 06:52:50;;;;;;;64.67;32.17;;;;;;;2.42;55.44;99397.36;2564717;76;25360;-74
2021/01/12 06:56:12;;;;;;;64.50;33.33;;;;;;;2.41;55.42;99393.91;2565113;77;25554;-74
2021/01/12 06:59:43;;;;;;;61.53;32.15;;;;;;;2.42;55.43;99400.80;2565601;76;25636;-79
2021/01/12 07:03:09;;;;;;;61.00;31.62;;;;;;;2.44;55.41;99398.31;2565988;77;25881;-77
2021/01/12 07:06:33;;;;;;;62.48;32.67;;;;;;;2.44;55.41;99402.17;2565515;77;25614;-74
2021/01/12 07:10:12;;;;;;;65.45;33.33;;;;;;;2.43;55.40;99388.81;2560885;76;25709;-76
2021/01/12 07:13:46;;;;;;;59.17;30.87;;;;;;;2.52;55.40;99396.91;2588123;76;25607;-91
2021/01/12 07:17:07;;;;;;;61.30;33.18;;;;;;;2.45;55.40;99391.05;2550227;77;25870;-75
2021/01/12 07:20:29;;;;;;;61.37;30.82;;;;;;;2.48;55.39;99388.61;2551819;77;25586;-77
2021/01/12 07:23:56;;;;;;;56.68;30.15;;;;;;;2.50;55.41;99381.42;2557484;76;25641;-88
2021/01/12 07:27:20;;;;;;;61.63;29.48;;;;;;;2.52;55.43;99377.20;2560467;77;25711;-76
2021/01/12 07:30:51;;;;;;;57.30;32.35;;;;;;;2.55;55.41;99374.75;2527932;77;25736;-93
2021/01/12 07:34:15;;;;;;;67.08;32.98;;;;;;;2.57;55.38;99368.39;2560227;77;25592;-84
2021/01/12 07:37:41;;;;;;;58.25;29.77;;;;;;;2.59;55.41;99356.45;2561650;77;25609;-91
2021/01/12 07:41:04;;;;;;;63.70;31.52;;;;;;;2.63;55.40;99356.16;2561705;77;25864;-78
2021/01/12 07:44:39;;;;;;;55.48;30.80;;;;;;;2.66;55.36;99355.86;2558034;77;26104;-76
2021/01/12 07:48:02;;;;;;;59.65;31.62;;;;;;;2.69;55.35;99346.11;2528529;77;25753;-76
2021/01/12 07:51:27;;;;;;;59.65;30.37;;;;;;;2.73;55.30;99345.39;2561043;77;25479;-82
2021/01/12 07:54:49;;;;;;;60.52;31.52;;;;;;;2.77;55.27;99353.73;2561588;77;25725;-76
2021/01/12 07:58:15;;;;;;;53.33;30.85;;;;;;;2.80;55.22;99332.84;2550928;77;25942;-77
2021/01/12 08:01:37;;;;;;;56.20;29.65;;;;;;;2.86;55.18;99329.59;2526134;77;26059;-76
2021/01/12 08:05:04;;;;;;;58.50;29.72;;;;;;;2.91;55.10;99312.64;2560344;77;25686;-75
2021/01/12 08:08:26;;;;;;;59.80;30.12;;;;;;;2.97;55.08;99319.31;2558314;77;25384;-75
2021/01/12 08:11:55;;;;;;;56.88;30.52;;;;;;;3.04;55.03;99326.44;2564204;77;25557;-75
2021/01/12 08:15:17;;;;;;;55.88;29.67;;;;;;;3.10;54.96;99321.89;2569686;77;25682;-75
2021/01/12 08:18:39;;;;;;;56.10;29.40;;;;;;;3.16;54.87;99324.70;2570468;77;25896;-76
2021/01/12 08:22:01;;;;;;;54.27;27.67;;;;;;;3.24;54.78;99330.11;2536357;77;25533;-76
2021/01/12 08:25:26;;;;;;;55.45;28.38;;;;;;;3.33;54.73;99316.28;2568718;77;25706;-74
2021/01/12 08:29:02;;;;;;;58.23;27.45;;;;;;;3.45;54.66;99326.16;2564216;77;26064;-76
2021/01/12 08:32:25;;;;;;;51.98;27.87;;;;;;;3.57;54.55;99323.98;2566526;77;25864;-76
2021/01/12 08:36:04;;;;;;;54.35;28.15;;;;;;;3.71;54.38;99330.89;2563742;77;25818;-76
2021/01/12 08:39:31;;;;;;;;;;;;;;;3.85;54.25;99318.08;2567623;76;25674;-74
2021/01/12 08:42:53;;;;;;;50.05;25.43;;;;;;;3.98;54.05;99309.92;2566803;77;25628;-75
2021/01/12 08:46:18;;;;;;;51.42;24.55;;;;;;;4.06;53.94;99300.27;2568499;77;25951;-75
2021/01/12 08:49:40;;;;;;;49.30;26.05;;;;;;;4.18;53.86;99292.48;2567789;77;25616;-76
2021/01/12 08:53:05;;;;;;;50.12;25.85;;;;;;;4.33;53.77;99304.12;2568993;77;25594;-85
2021/01/12 08:56:27;;;;;;;49.55;26.45;;;;;;;4.46;53.52;99290.36;2569490;77;25723;-81
2021/01/12 08:59:58;;;;;;;47.85;23.57;;;;;;;4.62;53.37;99283.92;2537339;77;25402;-76
2021/01/12 09:03:21;;;;;;;43.78;24.35;;;;;;;4.92;53.17;99288.23;2568814;77;25402;-76
2021/01/12 09:07:06;;;;;;;45.80;22.85;;;;;;;5.21;52.81;99275.72;2563847;77;25577;-81
2021/01/12 09:10:28;;;;;;;42.30;23.67;;;;;;;5.36;52.57;99281.70;2516034;77;25636;-79
2021/01/12 09:13:50;;;;;;;38.63;22.17;;;;;;;5.42;52.24;99269.37;2491575;77;25970;-76
2021/01/12 09:17:21;;;;;;;37.05;22.17;;;;;;;5.45;52.05;99264.28;2477906;79;25401;-75
2021/01/12 09:20:42;;;;;;;35.68;21.93;;;;;;;5.49;51.85;99258.78;2477949;79;25531;-74
2021/01/12 09:24:06;;;;;;;41.18;22.07;;;;;;;5.48;51.79;99256.61;2477705;78;25505;-76
2021/01/12 09:27:29;;;;;;;36.25;20.32;;;;;;;5.48;51.66;99247.99;2478116;78;25743;-77
2021/01/12 09:30:51;;;;;;;38.95;21.52;;;;;;;5.50;51.59;99254.05;2476893;78;25741;-74
2021/01/12 09:34:23;;;;;;;32.35;19.45;;;;;;;5.58;51.48;99252.56;2477943;78;25665;-74
2021/01/12 09:37:57;;;;;;;34.63;18.35;;;;;;;5.68;51.02;99234.72;2478071;79;25665;-82
2021/01/12 09:41:24;;;;;;;29.98;18.62;;;;;;;5.87;50.51;99224.81;2478178;78;25522;-81
2021/01/12 09:44:46;;;;;;;26.57;17.10;;;;;;;6.33;49.88;99215.55;2475386;78;25651;-74
2021/01/12 09:48:08;;;;;;;29.45;17.27;;;;;;;7.06;49.28;99216.19;2453302;78;25595;-75
2021/01/12 09:51:29;;;;;;;28.90;17.25;;;;;;;7.93;48.32;99208.61;2478296;78;25594;-89
2021/01/12 09:54:52;;;;;;;31.80;18.98;;;;;;;8.60;47.33;99203.48;2478276;78;25664;-75
2021/01/12 09:58:14;;;;;;;32.88;17.35;;;;;;;9.02;46.51;99199.66;2477939;79;25585;-74
2021/01/12 10:01:35;;;;;;;25.48;16.45;;;;;;;9.27;45.43;99196.00;2478159;79;25486;-74
2021/01/12 10:04:57;;;;;;;30.00;18.40;;;;;;;9.11;44.79;99194.56;2477372;78;26322;-75
2021/01/12 10:08:19;;;;;;;28.15;17.60;;;;;;;8.81;44.67;99195.09;2477919;79;25576;-74
2021/01/12 10:11:40;;;;;;;31.30;18.12;;;;;;;8.55;44.65;99186.98;2480801;77;25507;-76
2021/01/12 10:15:03;;;;;;;31.37;17.15;;;;;;;8.31;44.38;99179.72;2528183;76;25755;-86
2021/01/12 10:18:24;;;;;;;25.57;15.83;;;;;;;8.14;44.46;99170.83;2511222;77;25705;-79
2021/01/12 10:21:50;;;;;;;23.70;16.15;;;;;;;8.31;44.49;99172.36;2491557;77;25531;-88
2021/01/12 10:25:13;;;;;;;22.25;14.15;;;;;;;8.49;44.50;99168.72;2488665;78;25436;-74
2021/01/12 10:28:38;;;;;;;24.52;15.08;;;;;;;8.50;44.26;99154.47;2478827;79;25614;-74
2021/01/12 10:32:02;;;;;;;24.47;15.25;;;;;;;8.40;44.17;99152.58;2478504;78;25546;-75
2021/01/12 10:35:25;;;;;;;27.37;15.72;;;;;;;8.26;44.03;99147.61;2477094;78;25618;-75
2021/01/12 10:38:47;;;;;;;23.67;14.75;;;;;;;8.44;43.84;99140.53;2477993;79;25630;-77
2021/01/12 10:42:10;;;;;;;21.97;13.83;;;;;;;8.75;43.52;99137.86;2474164;78;26054;-78
2021/01/12 10:45:38;;;;;;;19.25;14.47;;;;;;;8.67;43.33;99132.98;2467534;78;25624;-89
2021/01/12 10:49:12;;;;;;;22.42;14.18;;;;;;;8.55;43.09;99122.05;2427790;79;26208;-91
2021/01/12 10:52:34;;;;;;;20.35;14.25;;;;;;;8.36;43.10;99143.41;2340744;83;25808;-74
2021/01/12 10:56:02;;;;;;;22.73;14.23;;;;;;;8.21;43.17;99119.44;2427508;80;25756;-92
2021/01/12 10:59:29;;;;;;;22.10;13.65;;;;;;;8.19;43.28;99108.16;2434653;81;25623;-75
2021/01/12 11:02:52;;;;;;;24.20;14.15;;;;;;;8.24;43.49;99101.30;2434162;81;25196;-76
2021/01/12 11:06:17;;;;;;;22.25;14.33;;;;;;;8.35;43.50;99107.92;2434359;80;25527;-75
2021/01/12 11:09:40;;;;;;;19.60;13.05;;;;;;;8.43;43.49;99101.98;2463978;77;25732;-75
2021/01/12 11:13:02;;;;;;;22.85;13.03;;;;;;;8.51;43.53;99096.47;2474281;78;26144;-81
2021/01/12 11:16:24;;;;;;;22.75;14.73;;;;;;;8.69;43.60;99095.78;2464365;78;25716;-92
2021/01/12 11:20:07;;;;;;;22.93;14.35;;;;;;;8.96;43.43;99082.62;2413643;80;25786;-77
2021/01/12 11:23:37;;;;;;;21.23;14.47;;;;;;;9.03;43.35;99077.91;2403662;80;25790;-75
2021/01/12 11:27:29;;;;;;;23.65;14.28;;;;;;;8.89;43.13;99074.33;2347186;81;25802;-75
2021/01/12 11:30:52;;;;;;;20.17;13.68;;;;;;;8.69;43.27;99071.53;2396481;79;26035;-75
2021/01/12 11:34:29;;;;;;;;;;;;;;;;;;;;;
2021/01/12 11:37:58;;;;;;;25.88;14.38;;;;;;;8.16;43.09;99058.78;2420290;80;25697;-74
2021/01/12 11:41:37;;;;;;;22.58;14.13;;;;;;;7.93;43.22;99061.09;2425042;80;25748;-77
2021/01/12 11:45:12;;;;;;;23.38;14.90;;;;;;;7.75;43.17;99048.76;2453961;78;25703;-75
2021/01/12 11:48:34;;;;;;;27.13;16.05;;;;;;;7.56;43.29;99039.88;2238238;85;26837;-75
2021/01/12 11:51:57;;;;;;;25.15;15.32;;;;;;;7.36;43.50;99039.58;2267191;85;25850;-76
2021/01/12 11:55:30;;;;;;;24.65;16.10;;;;;;;7.18;43.60;99027.19;2264683;85;25785;-75
2021/01/12 11:58:52;;;;;;;27.42;14.90;;;;;;;7.02;43.71;99024.80;2206870;87;25409;-77
2021/01/12 12:02:14;;;;;;;24.77;15.83;;;;;;;6.86;43.95;99024.97;2185924;89;25868;-79
2021/01/12 12:05:49;;;;;;;25.27;15.40;;;;;;;6.72;44.10;99013.52;2247594;82;25872;-78
2021/01/12 12:09:10;;;;;;;28.80;16.27;;;;;;;6.59;44.31;99018.90;2375695;81;25671;-77
2021/01/12 12:12:35;;;;;;;28.05;16.00;;;;;;;6.47;44.45;99022.55;2381667;82;25694;-88
2021/01/12 12:15:58;;;;;;;27.22;16.87;;;;;;;6.33;44.66;99004.61;2360880;82;25707;-75
2021/01/12 12:19:27;;;;;;;27.40;16.25;;;;;;;6.23;44.86;99018.22;2465179;78;25674;-83
2021/01/12 12:22:59;;;;;;;29.07;16.05;;;;;;;6.11;45.00;99006.81;2445964;79;26340;-78
2021/01/12 12:26:20;;;;;;;29.02;18.23;;;;;;;6.00;45.20;99009.58;2397810;81;25723;-76
2021/01/12 12:30:01;;;;;;;25.60;15.63;;;;;;;5.91;45.38;98996.46;2480141;78;25647;-76
2021/01/12 12:33:29;;;;;;;32.60;16.90;;;;;;;5.80;45.53;98991.47;2475667;79;25635;-77
2021/01/12 12:36:58;;;;;;;31.82;15.68;;;;;;;5.71;45.73;98988.72;2393761;81;25650;-83
2021/01/12 12:40:19;;;;;;;29.70;16.42;;;;;;;5.60;45.91;98982.01;2448323;80;26137;-76
2021/01/12 12:43:46;;;;;;;27.60;15.13;;;;;;;5.51;46.12;98972.79;2448653;80;25705;-84
2021/01/12 12:47:08;;;;;;;28.70;16.40;;;;;;;5.44;46.31;98969.20;2448571;79;25644;-74
2021/01/12 12:50:29;;;;;;;23.40;16.12;;;;;;;5.39;46.46;98969.51;2470421;78;25807;-74
2021/01/12 12:53:58;;;;;;;27.60;16.37;;;;;;;5.34;46.61;98969.84;2475705;78;25607;-75
2021/01/12 12:57:21;;;;;;;30.23;15.88;;;;;;;5.29;46.76;98965.84;2465844;79;25763;-74
2021/01/12 13:00:45;;;;;;;27.55;16.65;;;;;;;5.23;46.93;98953.22;2393567;82;25693;-75
2021/01/12 13:04:07;;;;;;;25.43;14.95;;;;;;;5.18;47.08;98951.84;2483956;79;25684;-74
2021/01/12 13:07:30;;;;;;;34.35;16.48;;;;;;;5.15;47.24;98951.77;2393388;82;25759;-79
2021/01/12 13:10:51;;;;;;;30.23;16.65;;;;;;;5.14;47.39;98940.98;2493814;78;25636;-74
2021/01/12 13:14:14;;;;;;;26.55;15.90;;;;;;;5.12;47.54;98942.66;2493931;79;25280;-74
2021/01/12 13:17:43;;;;;;;22.75;15.68;;;;;;;5.10;47.67;98936.17;2494207;79;25703;-74
2021/01/12 13:21:06;;;;;;;30.65;15.88;;;;;;;5.07;47.86;98937.39;2494113;79;25627;-73
2021/01/12 13:24:28;;;;;;;28.12;17.00;;;;;;;5.06;48.02;98942.12;2493869;79;25620;-88
2021/01/12 13:27:51;;;;;;;29.10;16.15;;;;;;;5.04;48.08;98939.91;2493916;79;25569;-77
2021/01/12 13:31:15;;;;;;;26.20;15.45;;;;;;;5.02;48.21;98948.45;2493586;79;25687;-76
2021/01/12 13:34:38;;;;;;;32.20;17.12;;;;;;;4.97;48.31;98941.48;2493102;79;25681;-76
2021/01/12 13:38:00;;;;;;;37.15;16.93;;;;;;;4.95;48.42;98944.86;2492208;79;25670;-74
2021/01/12 13:41:22;;;;;;;30.95;16.67;;;;;;;4.92;48.52;98931.88;2491692;79;25662;-84
2021/01/12 13:44:43;;;;;;;35.98;17.40;;;;;;;4.90;48.57;98930.98;2488758;79;25660;-87
2021/01/12 13:48:17;;;;;;;29.82;17.23;;;;;;;4.90;48.69;98930.56;2469530;79;25759;-75
2021/01/12 13:51:41;;;;;;;30.40;17.62;;;;;;;4.92;48.80;98927.58;2491948;79;25720;-74
2021/01/12 13:55:05;;;;;;;28.85;16.02;;;;;;;4.91;48.87;98917.22;2486168;78;25937;-88
2021/01/12 13:58:28;;;;;;;32.23;17.62;;;;;;;4.93;48.99;98909.98;2476332;79;25682;-75
2021/01/12 14:01:52;;;;;;;28.90;15.95;;;;;;;4.93;49.09;98909.11;2478612;79;25762;-75
2021/01/12 14:05:14;;;;;;;28.12;16.75;;;;;;;4.93;49.19;98907.39;2471973;79;25630;-83
2021/01/12 14:08:35;;;;;;;29.67;16.20;;;;;;;4.93;49.26;98905.23;2449459;80;25672;-74
2021/01/12 14:11:58;;;;;;;29.07;16.37;;;;;;;4.94;49.35;98907.84;2449552;80;25756;-74
2021/01/12 14:15:23;;;;;;;34.95;17.02;;;;;;;4.94;49.44;98905.25;2449613;80;26327;-73
2021/01/12 14:18:46;;;;;;;35.20;17.25;;;;;;;4.93;49.51;98897.48;2449614;80;25647;-74
2021/01/12 14:22:21;;;;;;;32.58;16.25;;;;;;;4.93;49.60;98901.36;2449839;80;25657;-73
2021/01/12 14:25:42;;;;;;;30.25;16.05;;;;;;;4.92;49.63;98897.02;2443647;80;25820;-74
2021/01/12 14:29:05;;;;;;;28.95;17.27;;;;;;;4.90;49.71;98894.41;2445709;80;25617;-74
2021/01/12 14:32:31;;;;;;;34.73;18.52;;;;;;;4.90;49.79;98892.25;2397381;80;25606;-74
2021/01/12 14:35:53;;;;;;;27.58;17.02;;;;;;;4.89;49.84;98884.03;2396912;81;25790;-80
2021/01/12 14:39:44;;;;;;;32.55;17.27;;;;;;;4.89;49.91;98882.73;2397462;81;25600;-74
2021/01/12 14:43:07;;;;;;;30.50;16.80;;;;;;;4.89;49.98;98878.47;2383548;82;25591;-75
2021/01/12 14:46:30;;;;;;;30.20;17.25;;;;;;;4.88;50.06;98876.70;2385981;81;25579;-75
2021/01/12 14:49:52;;;;;;;29.80;16.48;;;;;;;4.87;50.13;98870.23;2387200;81;25609;-78
2021/01/12 14:53:14;;;;;;;31.90;16.67;;;;;;;4.88;50.22;98885.75;2386968;82;25600;-75
2021/01/12 14:56:35;;;;;;;32.80;18.15;;;;;;;4.88;50.33;98867.67;2451512;79;25636;-75
2021/01/12 14:59:57;;;;;;;32.13;19.00;;;;;;;4.88;50.40;98856.05;2454113;80;25554;-74
2021/01/12 15:03:19;;;;;;;31.30;18.00;;;;;;;4.87;50.47;98847.86;2433588;81;26311;-74
2021/01/12 15:06:51;;;;;;;33.48;18.27;;;;;;;4.87;50.53;98844.41;2433656;81;25684;-74
2021/01/12 15:10:14;;;;;;;35.68;18.62;;;;;;;4.86;50.59;98838.78;2433794;81;25566;-73
2021/01/12 15:13:35;;;;;;;30.85;18.87;;;;;;;4.86;50.66;98833.61;2433608;80;25643;-74
2021/01/12 15:16:57;;;;;;;36.08;19.02;;;;;;;4.85;50.70;98834.03;2433996;81;25628;-76
2021/01/12 15:20:19;;;;;;;32.63;18.00;;;;;;;4.86;50.75;98837.48;2433670;80;25708;-75
2021/01/12 15:23:40;;;;;;;33.85;18.70;;;;;;;4.84;50.78;98831.44;2433886;80;25653;-79
2021/01/12 15:27:04;;;;;;;36.03;19.12;;;;;;;4.85;50.81;98829.30;2435199;79;25195;-74
2021/01/12 15:30:28;;;;;;;30.43;17.35;;;;;;;4.86;50.90;98821.99;2420619;79;25639;-75
2021/01/12 15:33:51;;;;;;;38.45;19.12;;;;;;;4.86;50.90;98815.54;2467058;79;25539;-75
2021/01/12 15:37:13;;;;;;;34.92;19.20;;;;;;;4.86;50.96;98810.38;2476193;78;26664;-76
2021/01/12 15:40:36;;;;;;;35.92;18.65;;;;;;;4.85;51.00;98806.92;2476892;78;25733;-74
2021/01/12 15:43:59;;;;;;;35.17;19.02;;;;;;;4.86;51.05;98812.95;2478029;78;25375;-75
2021/01/12 15:47:21;;;;;;;42.65;21.23;;;;;;;4.85;51.06;98803.05;2477636;78;25706;-75
2021/01/12 15:50:43;;;;;;;36.13;20.65;;;;;;;4.86;51.10;98807.80;2473795;78;25660;-75
2021/01/12 15:54:05;;;;;;;35.50;19.12;;;;;;;4.85;51.14;98791.86;2479595;79;25741;-74
2021/01/12 15:57:27;;;;;;;37.40;19.65;;;;;;;4.85;51.19;98794.02;2478651;79;26265;-75
2021/01/12 16:00:53;;;;;;;33.28;18.90;;;;;;;4.87;51.24;98781.16;2479298;79;25624;-74
2021/01/12 16:04:15;;;;;;;36.95;20.05;;;;;;;4.87;51.28;98779.87;2479176;79;25570;-73
2021/01/12 16:07:46;;;;;;;35.73;18.37;;;;;;;4.87;51.35;98783.31;2478838;79;25598;-74